Virden, New Mexico
Current Conditions -  °F | °C
As of 2:35 PM on Friday 28 Nov 2014 (Local Time) from KLSB Reporting Station
Clear Clear  
Wind Chill: 20°   Ceiling: Unl
Heat Index: 20°   Visibility: 10mi
Dew Point: -6°   Wind: 8mph
Humidity: 17%   Direction: 120°ESE
Pressure: 30.1"   Gusts: NA
Location:  32.3095°N, 108.813°W
Report Text: KLSB 282135Z AUTO 12007KT 10SM CLR 20/M06 A3010 RMK AO2
Loading
Personal Weather Stations






























Interactive Weather Map New forecast layout! Learn more

10-Day Weather Forecast

Advertisements
Track Severe Weather on mobile